In Rescue
 
Open Full Screen Window  High Contrast Mode
Wind Gusting 00 knots
05
November 14, 2019 2:52 PM EST
Weather Information
Wind Direction
  240 °
Wind Speed
  05 kt (6 mph)
Wind Gust
  00 kt (0 mph)
Altimeter
30.15 in
Visibility
7 SM
Temperature
00° C
32° F
Dewpoint
-02° C
28° F
Humidity
87%
1hr Rain Fall
00.00 in.
24hr Rain Fall
00.00 in.
Sky Condition
Overcast @ 1,000 ft
MVFR

METAR KY70 141952Z AUTO 24005KT 7SM OVC010 00/M02 A3015 RMK AO2 T10041020

FAA Disclaimer: The data displayed is for advisory purposes only and is not to be used for flight planning or operations.